Pagrindinis puslapis
METAR-TAF:

METAR-TAF

Oro uostai :

Doha, Kataras

platuma: 25-16-23N, ilguma: 51-36-29E, Aukštis: 4 m

Dabartinis oras

Ataskaita buvo paskelbta 53 minutes, ne 12:00 UTC
Vėjas 12 kt iš Rytų
Temperatūra 29°C
Drėgmė 58%
Slėgis 1007 hPa
Matomumas: 7000 m

METAR: OTHH 201200Z 09012KT 7000 NSC 29/20 Q1007 NOSIG

Laikas: 15:53 (12:53 UTC)

Prognozė

Ataskaita buvo paskelbta 1 valandą ir 52 minutes, ne 11:01 UTC
Prognozė galioja nuo 20 metu 12 UTC su 21 metu 18 UTC
Vėjas 10 kt iš Rytų
Matomumas: 8000 m
Laikinai
nuo 20 metu 20 UTC su 21 metu 10 UTC
Vėjas 10 kt iš Pietų/Pietryčių

TAF: OTHH 201101Z 2012/2118 10010KT 8000 NSC TEMPO 2020/2110 16010KT

Orai ataskaitas ir orų prognozės (METAR, TAF).

turimą stotys yra geltonos ir raudonos taškus žemėlapyje.

Perkelti pele per norėdami pamatyti stoties vardą.

Tada spustelėkite, norėdami matyti oro stebėjimo ir prognozės.

Norėdami pakeisti žemėlapį: spustelėkite ant žalios mygtukų su juodo kryžiaus žemyn,; žalią mygtuką su brūkšneliu, jei norite nutolinti; arba žalių rodyklių gretimoms žemėlapius.


METAR-TAF: